createdAt,value
2022-11-17T00:00:42.173Z,96.58
2022-11-17T00:03:12.860Z,96.12
2022-11-17T00:05:39.440Z,96.73
2022-11-17T00:08:06.143Z,96.43
2022-11-17T00:10:32.764Z,96.42
2022-11-17T00:13:28.665Z,96.32
2022-11-17T00:15:55.228Z,96.66
2022-11-17T00:18:40.613Z,96.88
2022-11-17T00:21:20.005Z,96.75
2022-11-17T00:23:50.735Z,96.84
2022-11-17T00:26:58.898Z,96.27
2022-11-17T00:29:25.609Z,96.41
2022-11-17T00:32:10.974Z,95.46
2022-11-17T00:34:37.699Z,95.88
2022-11-17T00:37:05.502Z,95.26
2022-11-17T00:39:32.819Z,94.84
2022-11-17T00:41:59.878Z,95.20
2022-11-17T00:44:26.931Z,95.65
2022-11-17T00:46:53.722Z,96.11
2022-11-17T00:49:21.705Z,96.24
2022-11-17T00:51:48.395Z,96.61
2022-11-17T00:54:15.581Z,97.16
2022-11-17T00:56:42.261Z,97.33
2022-11-17T00:59:09.129Z,97.21
2022-11-17T01:01:36.150Z,97.13
2022-11-17T01:04:03.766Z,97.19
2022-11-17T01:09:08.225Z,98.68
2022-11-17T01:11:34.861Z,98.19
2022-11-17T01:14:01.571Z,98.15
2022-11-17T01:16:29.314Z,97.54
2022-11-17T01:18:55.996Z,97.60
2022-11-17T01:21:25.217Z,97.42
2022-11-17T01:23:54.850Z,98.02
2022-11-17T01:26:27.956Z,97.93
2022-11-17T01:28:55.174Z,97.99
2022-11-17T01:31:24.686Z,98.67
2022-11-17T01:33:51.877Z,99.02
2022-11-17T01:36:29.100Z,99.43
2022-11-17T01:41:28.637Z,100.00
2022-11-17T01:44:19.381Z,100.00
2022-11-17T01:46:46.350Z,99.14
2022-11-17T01:49:18.495Z,98.82
2022-11-17T01:51:51.540Z,99.23
2022-11-17T01:54:23.136Z,99.20
2022-11-17T01:56:53.927Z,99.56
2022-11-17T01:59:31.645Z,99.68
2022-11-17T02:01:58.900Z,99.69
2022-11-17T02:04:29.825Z,100.00
2022-11-17T02:07:03.636Z,100.00
2022-11-17T02:09:31.744Z,100.00
2022-11-17T02:11:59.218Z,100.00
2022-11-17T02:14:25.895Z,100.00
2022-11-17T02:16:52.582Z,99.70
2022-11-17T02:19:24.042Z,100.00
2022-11-17T02:22:20.883Z,99.92
2022-11-17T02:25:25.724Z,100.00
2022-11-17T02:28:17.854Z,99.84
2022-11-17T02:31:03.826Z,99.56
2022-11-17T02:33:42.618Z,99.65
2022-11-17T02:36:19.144Z,99.34
2022-11-17T02:39:11.970Z,100.00
2022-11-17T02:41:50.266Z,99.69
2022-11-17T02:44:25.773Z,100.00
2022-11-17T02:47:03.381Z,100.00
2022-11-17T02:49:36.520Z,100.00
2022-11-17T02:52:05.766Z,99.62
2022-11-17T02:54:33.223Z,99.48
2022-11-17T02:57:00.347Z,99.54
2022-11-17T02:59:35.442Z,100.00
2022-11-17T03:02:28.942Z,100.00
2022-11-17T03:05:09.989Z,99.99
2022-11-17T03:10:42.012Z,99.52
2022-11-17T03:13:18.636Z,99.47
2022-11-17T03:15:52.373Z,99.27
2022-11-17T03:18:37.884Z,98.89
2022-11-17T03:21:07.508Z,98.83
2022-11-17T03:23:43.977Z,98.01
2022-11-17T03:26:16.878Z,97.34
2022-11-17T03:28:46.616Z,96.94
2022-11-17T03:31:16.559Z,96.69
2022-11-17T03:33:48.754Z,97.70
2022-11-17T03:36:20.156Z,97.68
2022-11-17T03:38:55.534Z,98.28
2022-11-17T03:41:23.899Z,99.72
2022-11-17T03:43:52.709Z,99.50
2022-11-17T03:46:22.264Z,97.64
2022-11-17T03:48:51.706Z,95.78
2022-11-17T03:51:24.865Z,92.41
2022-11-17T03:53:53.884Z,93.06
2022-11-17T03:56:38.397Z,95.44
2022-11-17T03:59:19.252Z,93.76
2022-11-17T04:01:45.985Z,95.33
2022-11-17T04:04:17.643Z,94.74
2022-11-17T04:06:44.352Z,95.52
2022-11-17T04:09:11.528Z,97.07
2022-11-17T04:11:56.687Z,98.04
2022-11-17T04:14:41.529Z,98.26
2022-11-17T04:17:08.269Z,100.00
2022-11-17T04:19:34.872Z,100.00
2022-11-17T04:22:01.551Z,100.00
2022-11-17T04:24:28.237Z,100.00
2022-11-17T04:27:13.392Z,100.00
2022-11-17T04:29:40.086Z,100.00
2022-11-17T04:32:06.734Z,100.00
2022-11-17T04:34:33.393Z,100.00
2022-11-17T04:37:03.877Z,100.00
2022-11-17T04:39:34.255Z,100.00
2022-11-17T04:42:05.031Z,100.00
2022-11-17T04:44:32.588Z,100.00
2022-11-17T04:47:02.137Z,100.00
2022-11-17T04:49:29.443Z,100.00
2022-11-17T04:51:56.081Z,100.00
2022-11-17T04:54:24.860Z,100.00
2022-11-17T04:59:25.687Z,100.00
2022-11-17T05:01:52.400Z,100.00
2022-11-17T05:04:39.500Z,100.00
2022-11-17T05:07:07.459Z,100.00
2022-11-17T05:09:34.127Z,100.00
2022-11-17T05:12:19.321Z,100.00
2022-11-17T05:14:47.830Z,100.00
2022-11-17T05:17:14.557Z,100.00
2022-11-17T05:19:46.727Z,100.00
2022-11-17T05:22:35.184Z,100.00
2022-11-17T05:27:40.341Z,100.00
2022-11-17T05:30:08.401Z,100.00
2022-11-17T05:32:35.036Z,100.00
2022-11-17T05:35:01.687Z,100.00
2022-11-17T05:37:28.350Z,100.00
2022-11-17T05:42:26.298Z,100.00
2022-11-17T05:44:53.002Z,100.00
2022-11-17T05:47:19.694Z,100.00
2022-11-17T05:49:46.356Z,100.00
2022-11-17T05:52:13.131Z,100.00
2022-11-17T05:54:39.759Z,100.00
2022-11-17T05:57:17.256Z,100.00
2022-11-17T05:59:50.495Z,100.00
2022-11-17T06:02:26.920Z,100.00
2022-11-17T06:04:53.595Z,100.00
2022-11-17T06:07:20.919Z,100.00
2022-11-17T06:09:48.002Z,100.00
2022-11-17T06:12:15.670Z,100.00
2022-11-17T06:14:42.817Z,100.00
2022-11-17T06:17:28.942Z,100.00
2022-11-17T06:20:01.325Z,100.00
2022-11-17T06:25:08.463Z,100.00
2022-11-17T06:27:37.120Z,100.00
2022-11-17T06:30:05.553Z,100.00
2022-11-17T06:32:35.054Z,100.00
2022-11-17T06:35:06.480Z,99.65
2022-11-17T06:37:33.196Z,99.93
2022-11-17T06:39:59.980Z,99.03
2022-11-17T06:42:45.086Z,99.32
2022-11-17T06:45:12.059Z,98.84
2022-11-17T06:47:38.730Z,99.48
2022-11-17T06:50:05.922Z,98.77
2022-11-17T06:52:32.562Z,98.84
2022-11-17T06:54:59.170Z,99.05
2022-11-17T06:57:25.779Z,99.20
2022-11-17T06:59:52.778Z,98.21
2022-11-17T07:02:20.182Z,97.70
2022-11-17T07:04:46.895Z,96.14
2022-11-17T07:07:13.662Z,96.53
2022-11-17T07:09:40.472Z,96.45
2022-11-17T07:12:07.112Z,95.99
2022-11-17T07:14:33.805Z,96.42
2022-11-17T07:17:00.424Z,96.84
2022-11-17T07:19:27.137Z,95.98
2022-11-17T07:21:53.736Z,96.64
2022-11-17T07:24:20.408Z,97.04
2022-11-17T07:26:47.158Z,96.38
2022-11-17T07:29:13.946Z,96.68
2022-11-17T07:31:40.601Z,95.43
2022-11-17T07:34:07.256Z,94.78
2022-11-17T07:36:33.892Z,93.99
2022-11-17T07:39:00.572Z,93.87
2022-11-17T07:41:27.456Z,93.28
2022-11-17T07:46:25.750Z,92.93
2022-11-17T07:48:56.207Z,91.87
2022-11-17T07:51:22.900Z,91.21
2022-11-17T07:53:49.604Z,90.94
2022-11-17T07:56:16.235Z,90.67
2022-11-17T07:58:43.032Z,89.28
2022-11-17T08:01:14.772Z,88.70
2022-11-17T08:03:42.645Z,90.39
2022-11-17T08:06:10.168Z,89.60
2022-11-17T08:08:38.779Z,88.92
2022-11-17T08:11:11.889Z,87.64
2022-11-17T08:13:40.012Z,87.44
2022-11-17T08:16:07.616Z,87.68
2022-11-17T08:18:35.171Z,85.16
2022-11-17T08:21:10.239Z,85.39
2022-11-17T08:23:37.657Z,86.04
2022-11-17T08:26:05.413Z,86.25
2022-11-17T08:28:32.281Z,85.06
2022-11-17T08:31:01.704Z,85.96
2022-11-17T08:33:28.581Z,85.48
2022-11-17T08:35:59.436Z,85.69
2022-11-17T08:38:29.242Z,85.96
2022-11-17T08:41:02.126Z,85.34
2022-11-17T08:43:28.990Z,85.63
2022-11-17T08:45:55.636Z,86.05
2022-11-17T08:48:23.020Z,84.41
2022-11-17T08:50:51.580Z,85.88
2022-11-17T08:53:20.591Z,86.07
2022-11-17T08:55:47.732Z,86.10
2022-11-17T08:58:14.429Z,85.57
2022-11-17T09:00:42.078Z,86.00
2022-11-17T09:03:10.432Z,85.09
2022-11-17T09:05:40.210Z,84.83
2022-11-17T09:08:37.879Z,85.16
2022-11-17T09:10:55.244Z,84.07
2022-11-17T09:15:53.261Z,83.39
2022-11-17T09:18:19.943Z,83.54
2022-11-17T09:20:46.708Z,82.88
2022-11-17T09:23:13.454Z,82.14
2022-11-17T09:25:40.142Z,82.26
2022-11-17T09:28:07.050Z,82.11
2022-11-17T09:30:33.732Z,82.77
2022-11-17T09:33:00.474Z,82.74
2022-11-17T09:35:27.079Z,81.56
2022-11-17T09:37:59.078Z,81.32
2022-11-17T09:40:25.860Z,80.73
2022-11-17T09:42:52.532Z,80.65
2022-11-17T09:45:30.445Z,79.85
2022-11-17T09:48:39.421Z,79.82
2022-11-17T09:51:00.410Z,79.61
2022-11-17T09:53:48.993Z,80.30
2022-11-17T09:56:16.198Z,79.82
2022-11-17T09:58:56.925Z,81.08
2022-11-17T10:01:24.040Z,80.21
2022-11-17T10:03:51.467Z,79.68
2022-11-17T10:06:23.831Z,79.27
2022-11-17T10:09:25.725Z,79.15
2022-11-17T10:11:54.901Z,79.35
2022-11-17T10:14:22.645Z,79.83
2022-11-17T10:16:58.367Z,79.47
2022-11-17T10:19:24.931Z,78.79
2022-11-17T10:22:12.820Z,79.04
2022-11-17T10:24:42.590Z,78.54
2022-11-17T10:27:22.283Z,77.35
2022-11-17T10:30:03.210Z,77.65
2022-11-17T10:32:32.538Z,76.89
2022-11-17T10:35:34.008Z,76.90
2022-11-17T10:38:21.068Z,74.48
2022-11-17T10:40:51.016Z,74.26
2022-11-17T10:43:26.801Z,73.82
2022-11-17T10:46:04.317Z,72.72
2022-11-17T10:48:36.274Z,73.83
2022-11-17T10:51:19.687Z,73.45
2022-11-17T10:54:07.081Z,73.46
2022-11-17T10:56:41.475Z,72.24
2022-11-17T10:59:30.393Z,71.92
2022-11-17T11:01:57.802Z,72.44
2022-11-17T11:04:35.095Z,71.87
2022-11-17T11:07:23.072Z,71.90
2022-11-17T11:10:11.002Z,71.33
2022-11-17T11:12:54.633Z,70.30
2022-11-17T11:15:24.829Z,70.10
2022-11-17T11:17:52.034Z,69.71
2022-11-17T11:20:24.237Z,69.59
2022-11-17T11:23:06.279Z,69.71
2022-11-17T11:25:41.413Z,68.49
2022-11-17T11:28:16.748Z,68.99
2022-11-17T11:31:33.616Z,69.42
2022-11-17T11:34:06.339Z,69.09
2022-11-17T11:36:50.720Z,68.21
2022-11-17T11:39:54.877Z,68.01
2022-11-17T11:42:36.797Z,67.99
2022-11-17T11:45:17.787Z,67.88
2022-11-17T11:47:47.208Z,69.33
2022-11-17T11:50:22.169Z,67.82
2022-11-17T11:52:56.712Z,67.81
2022-11-17T11:55:36.129Z,67.20
2022-11-17T11:58:07.556Z,67.68
2022-11-17T12:00:34.755Z,67.80
2022-11-17T12:03:10.435Z,67.71
2022-11-17T12:06:24.016Z,67.48
2022-11-17T12:09:01.706Z,66.58
2022-11-17T12:11:47.301Z,66.96
2022-11-17T12:14:18.153Z,67.98
2022-11-17T12:16:46.677Z,66.95
2022-11-17T12:19:44.421Z,66.84
2022-11-17T12:22:24.931Z,67.08
2022-11-17T12:24:57.668Z,66.99
2022-11-17T12:30:32.856Z,66.30
2022-11-17T12:33:09.052Z,66.26
2022-11-17T12:35:38.095Z,66.27
2022-11-17T12:38:22.603Z,66.03
2022-11-17T12:40:51.271Z,66.67
2022-11-17T12:43:28.016Z,67.11
2022-11-17T12:46:13.139Z,67.08
2022-11-17T12:48:52.752Z,67.93
2022-11-17T12:51:21.940Z,66.52
2022-11-17T12:53:54.422Z,66.46
2022-11-17T12:56:36.747Z,67.07
2022-11-17T12:59:17.703Z,66.37
2022-11-17T13:01:58.111Z,66.93
2022-11-17T13:04:36.691Z,66.65
2022-11-17T13:07:16.331Z,66.64
2022-11-17T13:09:42.968Z,66.33
2022-11-17T13:12:11.166Z,68.07
2022-11-17T13:14:53.418Z,69.18
2022-11-17T13:17:22.557Z,66.77
2022-11-17T13:19:59.248Z,66.20
2022-11-17T13:22:26.080Z,66.70
2022-11-17T13:24:54.035Z,67.57
2022-11-17T13:27:31.239Z,73.26
2022-11-17T13:30:14.161Z,67.88
2022-11-17T13:32:42.141Z,66.86
2022-11-17T13:35:23.362Z,66.12
2022-11-17T13:38:22.110Z,65.33
2022-11-17T13:40:51.413Z,64.83
2022-11-17T13:43:20.759Z,65.94
2022-11-17T13:45:51.503Z,63.74
2022-11-17T13:48:48.463Z,65.29
2022-11-17T13:51:28.001Z,64.07
2022-11-17T13:53:58.600Z,64.00
2022-11-17T13:56:31.198Z,63.43
2022-11-17T13:58:59.717Z,63.89
2022-11-17T14:01:29.625Z,63.06
2022-11-17T14:04:20.625Z,63.44
2022-11-17T14:07:02.359Z,62.65
2022-11-17T14:09:31.572Z,63.31
2022-11-17T14:11:59.092Z,63.87
2022-11-17T14:14:34.485Z,63.91
2022-11-17T14:17:20.816Z,63.58
2022-11-17T14:19:48.151Z,64.47
2022-11-17T14:22:22.303Z,64.11
2022-11-17T14:24:50.539Z,65.81
2022-11-17T14:27:29.856Z,64.74
2022-11-17T14:29:56.481Z,64.17
2022-11-17T14:32:23.270Z,64.31
2022-11-17T14:34:49.860Z,64.34
2022-11-17T14:37:17.075Z,65.00
2022-11-17T14:39:43.715Z,65.77
2022-11-17T14:42:11.353Z,65.93
2022-11-17T14:44:38.030Z,66.46
2022-11-17T14:47:04.743Z,65.84
2022-11-17T14:52:02.955Z,69.28
2022-11-17T14:54:29.575Z,68.53
2022-11-17T14:56:56.186Z,66.95
2022-11-17T14:59:22.842Z,67.63
2022-11-17T15:01:49.505Z,68.60
2022-11-17T15:04:43.347Z,69.57
2022-11-17T15:07:03.468Z,70.60
2022-11-17T15:09:30.328Z,70.48
2022-11-17T15:11:57.061Z,68.99
2022-11-17T15:14:23.668Z,69.49
2022-11-17T15:16:50.321Z,69.40
2022-11-17T15:19:16.997Z,68.26
2022-11-17T15:21:43.633Z,68.31
2022-11-17T15:24:10.409Z,69.42
2022-11-17T15:26:37.227Z,68.59
2022-11-17T15:29:03.885Z,68.41
2022-11-17T15:31:30.547Z,68.18
2022-11-17T15:33:57.504Z,69.18
2022-11-17T15:36:24.511Z,68.63
2022-11-17T15:38:51.232Z,68.47
2022-11-17T15:41:17.915Z,67.65
2022-11-17T15:43:45.636Z,68.86
2022-11-17T15:46:18.120Z,68.28
2022-11-17T15:48:47.204Z,69.58
2022-11-17T15:51:16.481Z,69.73
2022-11-17T15:53:44.951Z,70.54
2022-11-17T15:58:58.638Z,69.44
2022-11-17T16:01:30.730Z,69.56
2022-11-17T16:04:02.697Z,70.37
2022-11-17T16:06:30.733Z,71.63
2022-11-17T16:08:57.897Z,70.50
2022-11-17T16:11:25.910Z,70.33
2022-11-17T16:13:56.743Z,70.40
2022-11-17T16:16:25.623Z,72.55
2022-11-17T16:18:52.221Z,73.62
2022-11-17T16:21:19.013Z,72.60
2022-11-17T16:26:27.223Z,71.16
2022-11-17T16:29:11.801Z,70.93
2022-11-17T16:31:39.277Z,69.77
2022-11-17T16:36:46.927Z,70.67
2022-11-17T16:39:20.284Z,71.65
2022-11-17T16:41:47.552Z,71.73
2022-11-17T16:44:17.161Z,71.36
2022-11-17T16:46:45.859Z,71.06
2022-11-17T16:49:15.293Z,70.91
2022-11-17T16:51:48.264Z,70.62
2022-11-17T16:54:14.981Z,70.37
2022-11-17T16:56:41.992Z,70.64
2022-11-17T16:59:10.607Z,70.52
2022-11-17T17:01:37.233Z,71.43
2022-11-17T17:04:06.874Z,72.07
2022-11-17T17:06:34.705Z,72.07
2022-11-17T17:09:03.531Z,71.91
2022-11-17T17:11:31.984Z,73.25
2022-11-17T17:14:00.389Z,72.61
2022-11-17T17:16:27.256Z,73.01
2022-11-17T17:19:02.309Z,72.17
2022-11-17T17:21:30.119Z,73.01
2022-11-17T17:23:57.528Z,74.91
2022-11-17T17:26:26.506Z,73.49
2022-11-17T17:28:56.488Z,73.07
2022-11-17T17:31:25.225Z,73.45
2022-11-17T17:33:53.024Z,74.26
2022-11-17T17:36:21.968Z,73.60
2022-11-17T17:38:55.196Z,73.86
2022-11-17T17:41:24.757Z,74.76
2022-11-17T17:43:57.370Z,72.73
2022-11-17T17:46:25.073Z,71.92
2022-11-17T17:48:51.901Z,71.17
2022-11-17T17:51:20.570Z,71.09
2022-11-17T17:53:50.716Z,73.23
2022-11-17T17:56:19.667Z,71.30
2022-11-17T17:58:48.936Z,70.12
2022-11-17T18:01:16.840Z,69.47
2022-11-17T18:03:48.455Z,70.29
2022-11-17T18:06:17.949Z,69.52
2022-11-17T18:08:45.433Z,69.51
2022-11-17T18:11:14.512Z,69.07
2022-11-17T18:13:43.193Z,69.41
2022-11-17T18:16:13.379Z,69.17
2022-11-17T18:18:40.741Z,70.71
2022-11-17T18:21:09.849Z,69.96
2022-11-17T18:23:38.039Z,69.48
2022-11-17T18:26:19.525Z,69.07
2022-11-17T18:31:38.214Z,69.40
2022-11-17T18:34:18.923Z,68.36
2022-11-17T18:36:45.587Z,68.02
2022-11-17T18:41:50.529Z,68.63
2022-11-17T18:44:21.044Z,69.03
2022-11-17T18:46:48.066Z,68.81
2022-11-17T18:49:15.137Z,68.27
2022-11-17T18:51:42.141Z,68.87
2022-11-17T18:54:11.134Z,67.65
2022-11-17T18:56:38.581Z,68.34
2022-11-17T18:59:11.429Z,68.06
2022-11-17T19:01:40.159Z,67.97
2022-11-17T19:04:07.226Z,67.35
2022-11-17T19:06:34.018Z,67.79
2022-11-17T19:09:01.127Z,66.98
2022-11-17T19:11:30.914Z,67.49
2022-11-17T19:13:59.266Z,66.95
2022-11-17T19:16:26.686Z,68.19
2022-11-17T19:18:54.878Z,68.32
2022-11-17T19:21:25.953Z,70.19
2022-11-17T19:26:28.159Z,73.91
2022-11-17T19:28:59.186Z,74.62
2022-11-17T19:31:26.915Z,75.76
2022-11-17T19:36:32.045Z,75.93
2022-11-17T19:39:01.149Z,77.45
2022-11-17T19:41:31.081Z,79.33
2022-11-17T19:44:00.246Z,80.76
2022-11-17T19:46:28.755Z,81.67
2022-11-17T19:48:56.389Z,83.80
2022-11-17T19:51:29.334Z,82.20
2022-11-17T19:53:58.114Z,83.33
2022-11-17T19:56:25.801Z,83.37
2022-11-17T19:58:54.008Z,83.94
2022-11-17T20:01:26.152Z,86.29
2022-11-17T20:03:53.119Z,88.00
2022-11-17T20:06:22.199Z,87.69
2022-11-17T20:08:49.333Z,88.58
2022-11-17T20:11:21.330Z,91.19
2022-11-17T20:13:48.055Z,92.66
2022-11-17T20:16:20.525Z,94.35
2022-11-17T20:21:25.866Z,96.67
2022-11-17T20:23:52.637Z,96.44
2022-11-17T20:28:57.637Z,98.02
2022-11-17T20:31:31.636Z,96.68
2022-11-17T20:34:02.305Z,96.58
2022-11-17T20:36:31.589Z,97.80
2022-11-17T20:39:03.908Z,98.99
2022-11-17T20:41:31.035Z,98.21
2022-11-17T20:43:59.619Z,100.00
2022-11-17T20:46:27.293Z,100.00
2022-11-17T20:48:53.905Z,100.00
2022-11-17T20:51:22.238Z,100.00
2022-11-17T20:53:49.568Z,100.00
2022-11-17T20:56:17.301Z,100.00
2022-11-17T20:58:44.587Z,100.00
2022-11-17T21:01:14.739Z,100.00
2022-11-17T21:03:42.314Z,99.47
2022-11-17T21:06:09.098Z,99.71
2022-11-17T21:08:38.618Z,100.00
2022-11-17T21:11:11.903Z,98.52
2022-11-17T21:13:38.597Z,96.70
2022-11-17T21:16:11.514Z,97.59
2022-11-17T21:18:40.389Z,98.98
2022-11-17T21:21:09.769Z,97.46
2022-11-17T21:23:37.781Z,98.70
2022-11-17T21:26:06.196Z,98.71
2022-11-17T21:28:33.256Z,99.26
2022-11-17T21:31:06.416Z,100.00
2022-11-17T21:33:33.422Z,100.00
2022-11-17T21:36:01.957Z,100.00
2022-11-17T21:38:29.672Z,100.00
2022-11-17T21:41:01.889Z,100.00
2022-11-17T21:43:28.506Z,100.00
2022-11-17T21:45:55.136Z,100.00
2022-11-17T21:48:21.765Z,100.00
2022-11-17T21:50:48.702Z,100.00
2022-11-17T21:53:15.323Z,100.00
2022-11-17T21:55:42.039Z,100.00
2022-11-17T21:58:08.636Z,100.00
2022-11-17T22:00:35.365Z,100.00
2022-11-17T22:03:02.101Z,100.00
2022-11-17T22:05:28.729Z,100.00
2022-11-17T22:07:55.396Z,100.00
2022-11-17T22:10:22.107Z,100.00
2022-11-17T22:12:48.660Z,100.00
2022-11-17T22:15:15.349Z,100.00
2022-11-17T22:20:13.322Z,100.00
2022-11-17T22:22:40.112Z,100.00
2022-11-17T22:25:29.859Z,100.00
2022-11-17T22:27:53.470Z,100.00
2022-11-17T22:30:20.096Z,100.00
2022-11-17T22:32:46.723Z,100.00
2022-11-17T22:37:51.407Z,100.00
2022-11-17T22:40:18.125Z,100.00
2022-11-17T22:42:44.737Z,100.00
2022-11-17T22:45:11.458Z,100.00
2022-11-17T22:47:38.191Z,100.00
2022-11-17T22:52:38.606Z,100.00
2022-11-17T22:55:05.911Z,100.00
2022-11-17T22:57:32.555Z,100.00
2022-11-17T22:59:59.184Z,100.00
2022-11-17T23:02:25.847Z,100.00
2022-11-17T23:04:52.513Z,100.00
2022-11-17T23:07:19.192Z,100.00
2022-11-17T23:09:45.867Z,100.00
2022-11-17T23:12:12.487Z,100.00
2022-11-17T23:14:39.057Z,100.00
2022-11-17T23:17:05.815Z,100.00
2022-11-17T23:19:32.444Z,100.00
2022-11-17T23:21:59.101Z,100.00
2022-11-17T23:24:25.721Z,100.00
2022-11-17T23:26:52.388Z,100.00
2022-11-17T23:29:19.501Z,100.00
2022-11-17T23:31:46.322Z,100.00
2022-11-17T23:34:13.068Z,100.00
2022-11-17T23:36:39.810Z,100.00
2022-11-17T23:39:06.465Z,100.00
2022-11-17T23:41:33.153Z,100.00
2022-11-17T23:43:59.993Z,100.00
2022-11-17T23:46:27.371Z,100.00
2022-11-17T23:48:54.925Z,100.00
2022-11-17T23:51:24.150Z,100.00
2022-11-17T23:53:51.297Z,100.00
2022-11-17T23:56:20.692Z,100.00
2022-11-17T23:58:47.779Z,100.00
